sensor_id;sensor_type;location;lat;lon;timestamp;pressure;altitude;pressure_sealevel;temperature;humidity
15314;BME280;7757;52.626;4.746;2023-03-03T00:01:06;102488.66;;;13.62;61.73
15314;BME280;7757;52.626;4.746;2023-03-03T00:03:52;102480.41;;;13.56;60.98
15314;BME280;7757;52.626;4.746;2023-03-03T00:06:37;102481.25;;;13.56;61.00
15314;BME280;7757;52.626;4.746;2023-03-03T00:09:23;102487.13;;;13.60;60.94
15314;BME280;7757;52.626;4.746;2023-03-03T00:12:20;102481.44;;;13.55;60.54
15314;BME280;7757;52.626;4.746;2023-03-03T00:15:15;102489.31;;;13.56;61.60
15314;BME280;7757;52.626;4.746;2023-03-03T00:18:12;102484.78;;;13.57;61.27
15314;BME280;7757;52.626;4.746;2023-03-03T00:21:02;102487.47;;;13.57;60.93
15314;BME280;7757;52.626;4.746;2023-03-03T00:23:48;102483.41;;;13.53;60.82
15314;BME280;7757;52.626;4.746;2023-03-03T00:26:35;102483.41;;;13.53;61.22
15314;BME280;7757;52.626;4.746;2023-03-03T00:29:33;102480.56;;;13.54;61.08
15314;BME280;7757;52.626;4.746;2023-03-03T00:32:25;102487.78;;;13.54;61.50
15314;BME280;7757;52.626;4.746;2023-03-03T00:35:23;102494.34;;;13.51;60.98
15314;BME280;7757;52.626;4.746;2023-03-03T00:38:11;102496.00;;;13.52;61.13
15314;BME280;7757;52.626;4.746;2023-03-03T00:40:58;102500.72;;;13.50;61.65
15314;BME280;7757;52.626;4.746;2023-03-03T00:43:44;102496.19;;;13.51;61.18
15314;BME280;7757;52.626;4.746;2023-03-03T00:46:29;102486.75;;;13.47;61.05
15314;BME280;7757;52.626;4.746;2023-03-03T00:49:22;102488.44;;;13.48;60.69
15314;BME280;7757;52.626;4.746;2023-03-03T00:52:11;102490.16;;;13.49;60.57
15314;BME280;7757;52.626;4.746;2023-03-03T00:54:58;102493.16;;;13.46;61.24
15314;BME280;7757;52.626;4.746;2023-03-03T00:57:43;102484.59;;;13.42;60.35
15314;BME280;7757;52.626;4.746;2023-03-03T01:00:28;102497.84;;;13.43;61.39
15314;BME280;7757;52.626;4.746;2023-03-03T01:03:16;102497.50;;;13.47;61.59
15314;BME280;7757;52.626;4.746;2023-03-03T01:06:03;102494.16;;;13.45;61.85
15314;BME280;7757;52.626;4.746;2023-03-03T01:08:48;102495.00;;;13.45;60.39
15314;BME280;7757;52.626;4.746;2023-03-03T01:11:34;102503.22;;;13.43;60.77
15314;BME280;7757;52.626;4.746;2023-03-03T01:14:20;102487.41;;;13.40;61.44
15314;BME280;7757;52.626;4.746;2023-03-03T01:17:05;102502.03;;;13.38;61.25
15314;BME280;7757;52.626;4.746;2023-03-03T01:19:50;102501.88;;;13.39;61.67
15314;BME280;7757;52.626;4.746;2023-03-03T01:22:37;102507.25;;;13.39;61.23
15314;BME280;7757;52.626;4.746;2023-03-03T01:25:22;102505.41;;;13.40;61.66
15314;BME280;7757;52.626;4.746;2023-03-03T01:28:08;102496.31;;;13.41;61.15
15314;BME280;7757;52.626;4.746;2023-03-03T01:30:54;102502.72;;;13.40;62.16
15314;BME280;7757;52.626;4.746;2023-03-03T01:33:43;102500.50;;;13.35;60.99
15314;BME280;7757;52.626;4.746;2023-03-03T01:36:29;102495.13;;;13.35;60.70
15314;BME280;7757;52.626;4.746;2023-03-03T01:39:16;102495.00;;;13.37;61.60
15314;BME280;7757;52.626;4.746;2023-03-03T01:42:02;102496.97;;;13.35;61.54
15314;BME280;7757;52.626;4.746;2023-03-03T01:44:48;102489.09;;;13.33;61.24
15314;BME280;7757;52.626;4.746;2023-03-03T01:47:33;102490.75;;;13.34;60.56
15314;BME280;7757;52.626;4.746;2023-03-03T01:50:27;102492.63;;;13.34;61.59
15314;BME280;7757;52.626;4.746;2023-03-03T01:53:18;102491.94;;;13.32;61.08
15314;BME280;7757;52.626;4.746;2023-03-03T01:56:06;102489.25;;;13.32;61.32
15314;BME280;7757;52.626;4.746;2023-03-03T01:58:57;102492.78;;;13.32;60.63
15314;BME280;7757;52.626;4.746;2023-03-03T02:01:44;102498.16;;;13.32;60.97
15314;BME280;7757;52.626;4.746;2023-03-03T02:04:30;102478.81;;;13.29;61.28
15314;BME280;7757;52.626;4.746;2023-03-03T02:07:16;102482.22;;;13.31;61.50
15314;BME280;7757;52.626;4.746;2023-03-03T02:10:05;102481.84;;;13.26;61.07
15314;BME280;7757;52.626;4.746;2023-03-03T02:12:55;102479.00;;;13.27;61.59
15314;BME280;7757;52.626;4.746;2023-03-03T02:15:41;102478.16;;;13.27;61.43
15314;BME280;7757;52.626;4.746;2023-03-03T02:18:27;102465.22;;;13.22;61.24
15314;BME280;7757;52.626;4.746;2023-03-03T02:21:15;102459.16;;;13.20;61.02
15314;BME280;7757;52.626;4.746;2023-03-03T02:24:05;102472.78;;;13.27;61.89
15314;BME280;7757;52.626;4.746;2023-03-03T02:26:54;102469.56;;;13.23;61.57
15314;BME280;7757;52.626;4.746;2023-03-03T02:29:40;102472.44;;;13.22;61.23
15314;BME280;7757;52.626;4.746;2023-03-03T02:32:25;102462.34;;;13.24;61.59
15314;BME280;7757;52.626;4.746;2023-03-03T02:35:26;102468.72;;;13.23;61.47
15314;BME280;7757;52.626;4.746;2023-03-03T02:38:18;102463.34;;;13.23;62.40
15314;BME280;7757;52.626;4.746;2023-03-03T02:41:10;102463.66;;;13.20;62.17
15314;BME280;7757;52.626;4.746;2023-03-03T02:44:01;102469.03;;;13.20;61.85
15314;BME280;7757;52.626;4.746;2023-03-03T02:46:48;102469.03;;;13.20;61.52
15314;BME280;7757;52.626;4.746;2023-03-03T02:49:35;102464.69;;;13.19;61.18
15314;BME280;7757;52.626;4.746;2023-03-03T02:52:21;102467.53;;;13.17;61.23
15314;BME280;7757;52.626;4.746;2023-03-03T02:55:07;102470.22;;;13.17;61.15
15314;BME280;7757;52.626;4.746;2023-03-03T02:57:53;102468.69;;;13.15;61.54
15314;BME280;7757;52.626;4.746;2023-03-03T03:00:40;102473.75;;;13.18;61.82
15314;BME280;7757;52.626;4.746;2023-03-03T03:03:25;102461.16;;;13.10;61.90
15314;BME280;7757;52.626;4.746;2023-03-03T03:06:11;102472.25;;;13.15;61.34
15314;BME280;7757;52.626;4.746;2023-03-03T03:08:56;102467.84;;;13.14;61.31
15314;BME280;7757;52.626;4.746;2023-03-03T03:11:42;102468.03;;;13.13;61.17
15314;BME280;7757;52.626;4.746;2023-03-03T03:14:28;102469.88;;;13.12;61.46
15314;BME280;7757;52.626;4.746;2023-03-03T03:17:14;102472.56;;;13.12;61.60
15314;BME280;7757;52.626;4.746;2023-03-03T03:20:00;102471.19;;;13.08;61.42
15314;BME280;7757;52.626;4.746;2023-03-03T03:22:45;102469.34;;;13.09;62.54
15314;BME280;7757;52.626;4.746;2023-03-03T03:25:31;102480.94;;;13.09;61.49
15314;BME280;7757;52.626;4.746;2023-03-03T03:28:17;102465.28;;;13.05;61.24
15314;BME280;7757;52.626;4.746;2023-03-03T03:31:04;102475.84;;;13.06;61.81
15314;BME280;7757;52.626;4.746;2023-03-03T03:33:51;102479.25;;;13.08;61.73
15314;BME280;7757;52.626;4.746;2023-03-03T03:36:36;102471.47;;;13.05;61.39
15314;BME280;7757;52.626;4.746;2023-03-03T03:39:23;102481.94;;;13.08;60.78
15314;BME280;7757;52.626;4.746;2023-03-03T03:42:08;102484.91;;;13.05;60.81
15314;BME280;7757;52.626;4.746;2023-03-03T03:44:54;102478.72;;;13.05;61.31
15314;BME280;7757;52.626;4.746;2023-03-03T03:47:39;102489.63;;;13.03;60.75
15314;BME280;7757;52.626;4.746;2023-03-03T03:50:26;102484.25;;;13.03;60.75
15314;BME280;7757;52.626;4.746;2023-03-03T03:53:11;102474.00;;;12.99;62.19
15314;BME280;7757;52.626;4.746;2023-03-03T03:55:57;102479.72;;;13.04;61.87
15314;BME280;7757;52.626;4.746;2023-03-03T03:58:42;102484.25;;;13.03;62.21
15314;BME280;7757;52.626;4.746;2023-03-03T04:01:27;102485.09;;;13.04;61.73
15314;BME280;7757;52.626;4.746;2023-03-03T04:04:13;102482.56;;;13.02;60.94
15314;BME280;7757;52.626;4.746;2023-03-03T04:07:00;102472.13;;;12.99;60.71
15314;BME280;7757;52.626;4.746;2023-03-03T04:09:46;102480.88;;;13.01;61.30
15314;BME280;7757;52.626;4.746;2023-03-03T04:12:31;102480.03;;;13.01;61.27
15314;BME280;7757;52.626;4.746;2023-03-03T04:15:21;102490.78;;;13.01;61.55
15314;BME280;7757;52.626;4.746;2023-03-03T04:18:06;102488.25;;;12.99;62.08
15314;BME280;7757;52.626;4.746;2023-03-03T04:20:52;102487.44;;;12.99;61.26
15314;BME280;7757;52.626;4.746;2023-03-03T04:23:39;102493.78;;;12.98;61.67
15314;BME280;7757;52.626;4.746;2023-03-03T04:26:25;102490.56;;;12.94;60.63
15314;BME280;7757;52.626;4.746;2023-03-03T04:29:10;102490.25;;;12.97;61.69
15314;BME280;7757;52.626;4.746;2023-03-03T04:31:56;102487.91;;;12.94;62.43
15314;BME280;7757;52.626;4.746;2023-03-03T04:34:41;102496.63;;;12.96;60.79
15314;BME280;7757;52.626;4.746;2023-03-03T04:37:26;102494.97;;;12.95;61.82
15314;BME280;7757;52.626;4.746;2023-03-03T04:40:14;102493.25;;;12.94;61.17
15314;BME280;7757;52.626;4.746;2023-03-03T04:42:59;102496.94;;;12.93;61.46
15314;BME280;7757;52.626;4.746;2023-03-03T04:45:44;102490.75;;;12.93;61.29
15314;BME280;7757;52.626;4.746;2023-03-03T04:48:30;102492.75;;;12.91;61.39
15314;BME280;7757;52.626;4.746;2023-03-03T04:51:15;102498.97;;;12.91;61.19
15314;BME280;7757;52.626;4.746;2023-03-03T04:54:01;102494.59;;;12.90;60.82
15314;BME280;7757;52.626;4.746;2023-03-03T04:56:48;102492.91;;;12.89;60.83
15314;BME280;7757;52.626;4.746;2023-03-03T04:59:33;102493.22;;;12.86;61.25
15314;BME280;7757;52.626;4.746;2023-03-03T05:02:18;102504.50;;;12.90;61.41
15314;BME280;7757;52.626;4.746;2023-03-03T05:05:04;102497.63;;;12.87;61.78
15314;BME280;7757;52.626;4.746;2023-03-03T05:07:50;102494.06;;;12.86;61.69
15314;BME280;7757;52.626;4.746;2023-03-03T05:10:35;102500.31;;;12.87;61.01
15314;BME280;7757;52.626;4.746;2023-03-03T05:13:22;102498.59;;;12.86;61.71
15314;BME280;7757;52.626;4.746;2023-03-03T05:16:07;102503.13;;;12.85;62.07
15314;BME280;7757;52.626;4.746;2023-03-03T05:18:53;102494.22;;;12.85;61.83
15314;BME280;7757;52.626;4.746;2023-03-03T05:21:38;102493.69;;;12.81;61.42
15314;BME280;7757;52.626;4.746;2023-03-03T05:24:25;102496.06;;;12.84;61.37
15314;BME280;7757;52.626;4.746;2023-03-03T05:27:10;102495.38;;;12.82;61.42
15314;BME280;7757;52.626;4.746;2023-03-03T05:29:58;102494.53;;;12.82;61.26
15314;BME280;7757;52.626;4.746;2023-03-03T05:32:45;102498.06;;;12.82;61.61
15314;BME280;7757;52.626;4.746;2023-03-03T05:35:31;102494.53;;;12.82;61.77
15314;BME280;7757;52.626;4.746;2023-03-03T05:38:16;102494.84;;;12.79;62.10
15314;BME280;7757;52.626;4.746;2023-03-03T05:41:02;102490.84;;;12.75;61.39
15314;BME280;7757;52.626;4.746;2023-03-03T05:43:47;102491.50;;;12.77;61.32
15314;BME280;7757;52.626;4.746;2023-03-03T05:46:34;102492.34;;;12.77;60.57
15314;BME280;7757;52.626;4.746;2023-03-03T05:49:19;102494.84;;;12.79;61.50
15314;BME280;7757;52.626;4.746;2023-03-03T05:52:05;102498.72;;;12.76;61.71
15314;BME280;7757;52.626;4.746;2023-03-03T05:54:51;102502.25;;;12.77;61.03
15314;BME280;7757;52.626;4.746;2023-03-03T05:57:37;102501.56;;;12.75;61.21
15314;BME280;7757;52.626;4.746;2023-03-03T06:00:22;102501.56;;;12.75;61.33
15314;BME280;7757;52.626;4.746;2023-03-03T06:03:09;102503.22;;;12.76;61.16
15314;BME280;7757;52.626;4.746;2023-03-03T06:05:54;102503.72;;;12.71;60.87
15314;BME280;7757;52.626;4.746;2023-03-03T06:08:40;102506.09;;;12.74;61.53
15314;BME280;7757;52.626;4.746;2023-03-03T06:11:25;102492.13;;;12.71;61.69
15314;BME280;7757;52.626;4.746;2023-03-03T06:14:11;102500.38;;;12.69;61.73
15314;BME280;7757;52.626;4.746;2023-03-03T06:16:56;102504.56;;;12.72;61.09
15314;BME280;7757;52.626;4.746;2023-03-03T06:19:43;102511.47;;;12.74;61.66
15314;BME280;7757;52.626;4.746;2023-03-03T06:22:30;102507.41;;;12.70;60.66
15314;BME280;7757;52.626;4.746;2023-03-03T06:25:16;102506.25;;;12.73;60.94
15314;BME280;7757;52.626;4.746;2023-03-03T06:28:01;102503.72;;;12.71;61.88
15314;BME280;7757;52.626;4.746;2023-03-03T06:30:47;102506.41;;;12.71;61.22
15314;BME280;7757;52.626;4.746;2023-03-03T06:33:33;102509.94;;;12.72;62.02
15314;BME280;7757;52.626;4.746;2023-03-03T06:36:20;102511.59;;;12.73;60.81
15314;BME280;7757;52.626;4.746;2023-03-03T06:39:06;102502.53;;;12.66;62.06
15314;BME280;7757;52.626;4.746;2023-03-03T06:41:51;102514.28;;;12.73;62.13
15314;BME280;7757;52.626;4.746;2023-03-03T06:44:37;102512.31;;;12.75;62.09
15314;BME280;7757;52.626;4.746;2023-03-03T06:47:22;102509.94;;;12.72;61.19
15314;BME280;7757;52.626;4.746;2023-03-03T06:50:09;102515.13;;;12.73;61.57
15314;BME280;7757;52.626;4.746;2023-03-03T06:53:01;102526.41;;;12.77;60.97
15314;BME280;7757;52.626;4.746;2023-03-03T06:55:49;102520.38;;;12.75;60.97
15314;BME280;7757;52.626;4.746;2023-03-03T06:58:34;102520.53;;;12.81;61.94
15314;BME280;7757;52.626;4.746;2023-03-03T07:01:19;102532.03;;;12.92;60.89
15314;BME280;7757;52.626;4.746;2023-03-03T07:04:12;102529.69;;;12.97;60.37
15314;BME280;7757;52.626;4.746;2023-03-03T07:07:09;102535.78;;;12.99;61.07
15314;BME280;7757;52.626;4.746;2023-03-03T07:09:56;102538.13;;;13.02;60.33
15314;BME280;7757;52.626;4.746;2023-03-03T07:12:42;102530.75;;;13.04;60.93
15314;BME280;7757;52.626;4.746;2023-03-03T07:15:29;102533.97;;;13.07;61.48
15314;BME280;7757;52.626;4.746;2023-03-03T07:18:31;102534.53;;;13.11;60.30
15314;BME280;7757;52.626;4.746;2023-03-03T07:21:20;102542.59;;;13.19;60.75
15314;BME280;7757;52.626;4.746;2023-03-03T07:24:17;102550.88;;;13.25;59.44
15314;BME280;7757;52.626;4.746;2023-03-03T07:27:11;102547.38;;;13.33;61.08
15314;BME280;7757;52.626;4.746;2023-03-03T07:30:16;102545.88;;;13.38;60.28
15314;BME280;7757;52.626;4.746;2023-03-03T07:33:04;102552.28;;;13.46;59.64
15314;BME280;7757;52.626;4.746;2023-03-03T07:35:49;102557.19;;;13.58;59.37
15314;BME280;7757;52.626;4.746;2023-03-03T07:38:38;102544.13;;;13.63;59.35
15314;BME280;7757;52.626;4.746;2023-03-03T07:41:25;102564.31;;;13.75;59.50
15314;BME280;7757;52.626;4.746;2023-03-03T07:44:18;102556.59;;;13.80;58.66
15314;BME280;7757;52.626;4.746;2023-03-03T07:47:16;102569.88;;;13.90;59.66
15314;BME280;7757;52.626;4.746;2023-03-03T07:50:13;102572.59;;;13.98;59.05
15314;BME280;7757;52.626;4.746;2023-03-03T07:53:00;102570.75;;;13.98;59.60
15314;BME280;7757;52.626;4.746;2023-03-03T07:55:46;102580.50;;;14.08;58.76
15314;BME280;7757;52.626;4.746;2023-03-03T07:58:37;102581.00;;;14.11;59.74
15314;BME280;7757;52.626;4.746;2023-03-03T08:01:39;102577.16;;;14.14;58.68
15314;BME280;7757;52.626;4.746;2023-03-03T08:04:28;102582.69;;;14.20;58.69
15314;BME280;7757;52.626;4.746;2023-03-03T08:07:17;102587.25;;;14.28;58.71
15314;BME280;7757;52.626;4.746;2023-03-03T08:10:27;102578.53;;;14.34;59.77
15314;BME280;7757;52.626;4.746;2023-03-03T08:13:17;102584.91;;;14.41;58.71
15314;BME280;7757;52.626;4.746;2023-03-03T08:16:24;102595.03;;;14.55;57.91
15314;BME280;7757;52.626;4.746;2023-03-03T08:19:16;102590.28;;;14.65;58.49
15314;BME280;7757;52.626;4.746;2023-03-03T08:22:09;102590.63;;;14.78;57.74
15314;BME280;7757;52.626;4.746;2023-03-03T08:24:57;102584.69;;;14.91;58.64
15314;BME280;7757;52.626;4.746;2023-03-03T08:27:42;102590.06;;;15.07;57.93
15314;BME280;7757;52.626;4.746;2023-03-03T08:30:27;102591.88;;;15.23;57.22
15314;BME280;7757;52.626;4.746;2023-03-03T08:33:14;102593.50;;;15.40;57.09
15314;BME280;7757;52.626;4.746;2023-03-03T08:36:01;102594.47;;;15.55;56.87
15314;BME280;7757;52.626;4.746;2023-03-03T08:38:47;102601.88;;;15.61;57.25
15314;BME280;7757;52.626;4.746;2023-03-03T08:41:32;102593.38;;;15.72;56.80
15314;BME280;7757;52.626;4.746;2023-03-03T08:44:18;102595.66;;;15.83;56.19
15314;BME280;7757;52.626;4.746;2023-03-03T08:47:03;102597.00;;;15.87;56.03
15314;BME280;7757;52.626;4.746;2023-03-03T08:49:48;102598.94;;;16.01;55.66
15314;BME280;7757;52.626;4.746;2023-03-03T08:52:35;102600.06;;;16.07;55.16
15314;BME280;7757;52.626;4.746;2023-03-03T08:55:21;102594.53;;;16.08;54.96
15314;BME280;7757;52.626;4.746;2023-03-03T08:58:06;102591.56;;;16.18;55.32
15314;BME280;7757;52.626;4.746;2023-03-03T09:00:52;102595.53;;;16.30;55.23
15314;BME280;7757;52.626;4.746;2023-03-03T09:03:37;102585.84;;;16.36;55.05
15314;BME280;7757;52.626;4.746;2023-03-03T09:06:23;102590.00;;;16.46;54.43
15314;BME280;7757;52.626;4.746;2023-03-03T09:09:09;102586.66;;;16.44;54.04
15314;BME280;7757;52.626;4.746;2023-03-03T09:11:57;102591.66;;;16.55;54.32
15314;BME280;7757;52.626;4.746;2023-03-03T09:14:43;102589.88;;;16.62;54.39
15314;BME280;7757;52.626;4.746;2023-03-03T09:17:31;102601.00;;;16.67;53.84
15314;BME280;7757;52.626;4.746;2023-03-03T09:20:30;102593.34;;;16.71;53.74
15314;BME280;7757;52.626;4.746;2023-03-03T09:23:28;102593.66;;;16.76;54.08
15314;BME280;7757;52.626;4.746;2023-03-03T09:26:25;102597.38;;;16.75;53.29
15314;BME280;7757;52.626;4.746;2023-03-03T09:29:20;102600.72;;;16.77;53.43
15314;BME280;7757;52.626;4.746;2023-03-03T09:32:20;102603.16;;;16.87;53.19
15314;BME280;7757;52.626;4.746;2023-03-03T09:35:32;102596.00;;;16.79;53.63
15314;BME280;7757;52.626;4.746;2023-03-03T09:38:27;102597.97;;;16.85;53.40
15314;BME280;7757;52.626;4.746;2023-03-03T09:41:28;102604.47;;;16.91;53.77
15314;BME280;7757;52.626;4.746;2023-03-03T09:47:43;102594.28;;;16.63;54.20
15314;BME280;7757;52.626;4.746;2023-03-03T09:50:35;102589.03;;;16.39;54.51
15314;BME280;7757;52.626;4.746;2023-03-03T09:53:38;102598.53;;;16.35;55.04
15314;BME280;7757;52.626;4.746;2023-03-03T09:56:32;102596.25;;;16.24;55.03
15314;BME280;7757;52.626;4.746;2023-03-03T09:59:34;102612.84;;;16.36;54.53
15314;BME280;7757;52.626;4.746;2023-03-03T10:02:34;102597.34;;;16.38;54.28
15314;BME280;7757;52.626;4.746;2023-03-03T10:05:30;102610.97;;;16.44;54.19
15314;BME280;7757;52.626;4.746;2023-03-03T10:08:32;102593.91;;;16.44;54.08
15314;BME280;7757;52.626;4.746;2023-03-03T10:11:25;102612.50;;;16.39;54.39
15314;BME280;7757;52.626;4.746;2023-03-03T10:17:42;102616.38;;;16.44;54.04
15314;BME280;7757;52.626;4.746;2023-03-03T10:20:41;102613.31;;;16.47;54.61
15314;BME280;7757;52.626;4.746;2023-03-03T10:23:45;102608.34;;;16.51;54.38
15314;BME280;7757;52.626;4.746;2023-03-03T10:26:47;102606.66;;;16.58;53.95
15314;BME280;7757;52.626;4.746;2023-03-03T10:29:45;102614.50;;;16.67;53.19
15314;BME280;7757;52.626;4.746;2023-03-03T10:32:48;102606.81;;;16.56;54.16
15314;BME280;7757;52.626;4.746;2023-03-03T10:36:06;102616.38;;;16.44;54.87
15314;BME280;7757;52.626;4.746;2023-03-03T10:39:02;102618.09;;;16.37;54.82
15314;BME280;7757;52.626;4.746;2023-03-03T10:42:13;102618.16;;;16.29;54.40
15314;BME280;7757;52.626;4.746;2023-03-03T10:48:52;102619.53;;;16.25;55.03
15314;BME280;7757;52.626;4.746;2023-03-03T10:51:52;102617.19;;;16.22;54.47
15314;BME280;7757;52.626;4.746;2023-03-03T10:54:52;102618.03;;;16.23;54.40
15314;BME280;7757;52.626;4.746;2023-03-03T10:57:48;102614.00;;;16.18;55.03
15314;BME280;7757;52.626;4.746;2023-03-03T11:00:41;102619.41;;;16.18;55.05
15314;BME280;7757;52.626;4.746;2023-03-03T11:03:37;102622.94;;;16.19;54.68
15314;BME280;7757;52.626;4.746;2023-03-03T11:06:36;102616.56;;;16.12;55.51
15314;BME280;7757;52.626;4.746;2023-03-03T11:09:36;102617.13;;;16.07;54.94
15314;BME280;7757;52.626;4.746;2023-03-03T11:12:31;102610.38;;;16.03;55.72
15314;BME280;7757;52.626;4.746;2023-03-03T11:15:22;102614.63;;;15.98;54.96
15314;BME280;7757;52.626;4.746;2023-03-03T11:18:22;102603.91;;;15.90;55.49
15314;BME280;7757;52.626;4.746;2023-03-03T11:21:15;102619.09;;;15.91;55.36
15314;BME280;7757;52.626;4.746;2023-03-03T11:24:18;102621.28;;;15.87;55.13
15314;BME280;7757;52.626;4.746;2023-03-03T11:27:35;102627.88;;;15.85;55.35
15314;BME280;7757;52.626;4.746;2023-03-03T11:30:32;102635.28;;;15.83;55.34
15314;BME280;7757;52.626;4.746;2023-03-03T11:33:21;102630.09;;;15.81;56.19
15314;BME280;7757;52.626;4.746;2023-03-03T11:36:14;102624.50;;;15.83;55.92
15314;BME280;7757;52.626;4.746;2023-03-03T11:39:03;102626.91;;;15.78;55.29
15314;BME280;7757;52.626;4.746;2023-03-03T11:41:58;102626.41;;;15.74;55.82
15314;BME280;7757;52.626;4.746;2023-03-03T11:44:48;102623.91;;;15.73;55.49
15314;BME280;7757;52.626;4.746;2023-03-03T11:47:39;102622.22;;;15.72;55.83
15314;BME280;7757;52.626;4.746;2023-03-03T11:50:30;102622.41;;;15.70;55.30
15314;BME280;7757;52.626;4.746;2023-03-03T11:53:28;102619.16;;;15.75;55.34
15314;BME280;7757;52.626;4.746;2023-03-03T11:56:22;102623.34;;;15.77;56.32
15314;BME280;7757;52.626;4.746;2023-03-03T11:59:36;102627.44;;;15.73;55.62
15314;BME280;7757;52.626;4.746;2023-03-03T12:02:51;102618.84;;;15.70;55.43
15314;BME280;7757;52.626;4.746;2023-03-03T12:05:52;102620.69;;;15.69;56.60
15314;BME280;7757;52.626;4.746;2023-03-03T12:08:56;102617.50;;;15.66;56.52
15314;BME280;7757;52.626;4.746;2023-03-03T12:11:47;102617.50;;;15.66;56.35
15314;BME280;7757;52.626;4.746;2023-03-03T12:14:49;102612.13;;;15.66;55.90
15314;BME280;7757;52.626;4.746;2023-03-03T12:17:51;102609.91;;;15.69;55.77
15314;BME280;7757;52.626;4.746;2023-03-03T12:20:45;102601.31;;;15.66;55.82
15314;BME280;7757;52.626;4.746;2023-03-03T12:23:47;102600.13;;;15.68;55.44
15314;BME280;7757;52.626;4.746;2023-03-03T12:26:45;102605.72;;;15.67;55.95
15314;BME280;7757;52.626;4.746;2023-03-03T12:29:41;102596.78;;;15.66;55.56
15314;BME280;7757;52.626;4.746;2023-03-03T12:32:49;102598.47;;;15.67;56.69
15314;BME280;7757;52.626;4.746;2023-03-03T12:35:45;102597.13;;;15.63;56.54
15314;BME280;7757;52.626;4.746;2023-03-03T12:38:37;102582.31;;;15.59;56.35
15314;BME280;7757;52.626;4.746;2023-03-03T12:41:31;102587.69;;;15.59;55.76
15314;BME280;7757;52.626;4.746;2023-03-03T12:44:23;102584.03;;;15.52;56.98
15314;BME280;7757;52.626;4.746;2023-03-03T12:47:15;102594.63;;;15.61;55.91
15314;BME280;7757;52.626;4.746;2023-03-03T12:50:22;102598.69;;;15.57;56.27
15314;BME280;7757;52.626;4.746;2023-03-03T12:53:20;102581.84;;;15.47;57.18
15314;BME280;7757;52.626;4.746;2023-03-03T12:56:09;102590.94;;;15.54;56.72
15314;BME280;7757;52.626;4.746;2023-03-03T12:58:59;102576.81;;;15.52;56.78
15314;BME280;7757;52.626;4.746;2023-03-03T13:02:18;102585.06;;;15.51;57.24
15314;BME280;7757;52.626;4.746;2023-03-03T13:05:15;102593.81;;;15.45;56.61
15314;BME280;7757;52.626;4.746;2023-03-03T13:08:20;102588.41;;;15.45;56.51
15314;BME280;7757;52.626;4.746;2023-03-03T13:11:26;102591.47;;;15.42;56.44
15314;BME280;7757;52.626;4.746;2023-03-03T13:14:22;102589.78;;;15.41;57.49
15314;BME280;7757;52.626;4.746;2023-03-03T13:17:21;102583.06;;;15.37;57.05
15314;BME280;7757;52.626;4.746;2023-03-03T13:20:18;102579.53;;;15.36;57.53
15314;BME280;7757;52.626;4.746;2023-03-03T13:23:07;102578.16;;;15.40;57.12
15314;BME280;7757;52.626;4.746;2023-03-03T13:26:00;102568.72;;;15.36;56.86
15314;BME280;7757;52.626;4.746;2023-03-03T13:28:57;102576.47;;;15.39;57.04
15314;BME280;7757;52.626;4.746;2023-03-03T13:31:46;102578.16;;;15.40;56.57
15314;BME280;7757;52.626;4.746;2023-03-03T13:34:41;102580.16;;;15.54;56.92
15314;BME280;7757;52.626;4.746;2023-03-03T13:37:33;102584.84;;;15.60;55.69
15314;BME280;7757;52.626;4.746;2023-03-03T13:40:23;102579.25;;;15.62;55.67
15314;BME280;7757;52.626;4.746;2023-03-03T13:43:15;102580.94;;;15.63;56.47
15314;BME280;7757;52.626;4.746;2023-03-03T13:46:07;102588.69;;;15.66;55.73
15314;BME280;7757;52.626;4.746;2023-03-03T13:49:06;102569.50;;;15.61;55.52
15314;BME280;7757;52.626;4.746;2023-03-03T13:52:01;102576.09;;;15.58;55.81
15314;BME280;7757;52.626;4.746;2023-03-03T13:55:00;102569.00;;;15.57;55.40
15314;BME280;7757;52.626;4.746;2023-03-03T13:57:56;102573.22;;;15.60;55.16
15314;BME280;7757;52.626;4.746;2023-03-03T14:00:53;102551.69;;;15.52;55.05
15314;BME280;7757;52.626;4.746;2023-03-03T14:03:52;102556.03;;;15.61;54.69
15314;BME280;7757;52.626;4.746;2023-03-03T14:06:40;102560.22;;;15.63;54.41
15314;BME280;7757;52.626;4.746;2023-03-03T14:09:47;102553.31;;;15.61;56.03
15314;BME280;7757;52.626;4.746;2023-03-03T14:12:40;102554.81;;;15.63;55.30
15314;BME280;7757;52.626;4.746;2023-03-03T14:15:28;102556.66;;;15.63;55.54
15314;BME280;7757;52.626;4.746;2023-03-03T14:18:22;102555.53;;;15.57;55.17
15314;BME280;7757;52.626;4.746;2023-03-03T14:21:12;102555.19;;;15.60;54.96
15314;BME280;7757;52.626;4.746;2023-03-03T14:24:04;102557.38;;;15.57;55.47
15314;BME280;7757;52.626;4.746;2023-03-03T14:26:55;102556.38;;;15.58;55.07
15314;BME280;7757;52.626;4.746;2023-03-03T14:29:41;102548.28;;;15.58;54.41
15314;BME280;7757;52.626;4.746;2023-03-03T14:32:27;102540.53;;;15.55;54.49
15314;BME280;7757;52.626;4.746;2023-03-03T14:35:17;102551.34;;;15.55;54.41
15314;BME280;7757;52.626;4.746;2023-03-03T14:38:08;102538.88;;;15.46;55.27
15314;BME280;7757;52.626;4.746;2023-03-03T14:41:05;102544.44;;;15.44;54.46
15314;BME280;7757;52.626;4.746;2023-03-03T14:43:58;102546.47;;;15.42;55.34
15314;BME280;7757;52.626;4.746;2023-03-03T14:46:44;102540.72;;;15.45;55.03
15314;BME280;7757;52.626;4.746;2023-03-03T14:49:34;102537.53;;;15.42;55.04
15314;BME280;7757;52.626;4.746;2023-03-03T14:52:23;102546.31;;;15.36;54.82
15314;BME280;7757;52.626;4.746;2023-03-03T14:55:30;102529.66;;;15.32;55.25
15314;BME280;7757;52.626;4.746;2023-03-03T14:58:26;102535.88;;;15.41;54.54
15314;BME280;7757;52.626;4.746;2023-03-03T15:01:16;102537.03;;;15.46;55.17
15314;BME280;7757;52.626;4.746;2023-03-03T15:04:09;102529.91;;;15.53;54.32
15314;BME280;7757;52.626;4.746;2023-03-03T15:07:22;102532.59;;;15.61;55.03
15314;BME280;7757;52.626;4.746;2023-03-03T15:10:12;102524.50;;;15.61;54.02
15314;BME280;7757;52.626;4.746;2023-03-03T15:13:35;102528.34;;;15.67;54.09
15314;BME280;7757;52.626;4.746;2023-03-03T15:16:30;102523.94;;;15.66;53.77